Wah Cantt Weather



Wah Cantt's Current Weather

Temprature 37.58o clear sky

clear sky

Rain: 0 %

Min Temprature37.58o
Max Temprature37.58o
Humidity23
Wind Speed1.15 m/h
Sun Rise05:15:05
Sun Set19:15:47
Current Time: 24-Jul-2021 16:34:15
Lat/Lon: 33.7875, 72.7265




Wah Cantt's Geo Location



Wah Cantt's Weather Forecast

Time Overall Temp Min Temp Max Temp Humidity Wind Speed Rain
24-Jul-2021 (Sat)
17:00:00 clear sky 37.580 37.580 40.190 23 1.15 m/h 0 %
20:00:00 clear sky 37.350 36.890 37.350 25 1.2 m/h 0 %
23:00:00 clear sky 35.710 34.770 35.710 29 1.56 m/h 0 %
25-Jul-2021 (Sun)
02:00:00 clear sky 32.720 32.720 32.720 39 2.72 m/h 0 %
05:00:00 scattered clouds 31.520 31.520 31.520 42 3.04 m/h 0 %
08:00:00 overcast clouds 34.960 34.960 34.960 39 3.65 m/h 0 %
11:00:00 overcast clouds 38.910 38.910 38.910 29 3.25 m/h 0 %
14:00:00 scattered clouds 41.200 41.200 41.200 23 2.75 m/h 0 %
17:00:00 scattered clouds 41.610 41.610 41.610 22 1.9 m/h 0 %
20:00:00 clear sky 38.060 38.060 38.060 28 1.22 m/h 0 %
23:00:00 clear sky 35.660 35.660 35.660 34 4.4 m/h 0 %
26-Jul-2021 (Mon)
02:00:00 broken clouds 33.010 33.010 33.010 55 6.68 m/h 0 %
05:00:00 broken clouds 31.950 31.950 31.950 58 4.49 m/h 0 %
08:00:00 broken clouds 34.060 34.060 34.060 53 5.8 m/h 0 %
11:00:00 broken clouds 37.710 37.710 37.710 42 5.26 m/h 0 %
14:00:00 broken clouds 40.380 40.380 40.380 33 3.45 m/h 0 %
17:00:00 broken clouds 40.860 40.860 40.860 30 3.29 m/h 0 %
20:00:00 broken clouds 36.680 36.680 36.680 41 4.27 m/h 0 %
23:00:00 broken clouds 33.140 33.140 33.140 58 9.08 m/h 0 %
27-Jul-2021 (Tue)
02:00:00 overcast clouds 31.180 31.180 31.180 67 6.47 m/h 0 %
05:00:00 overcast clouds 30.190 30.190 30.190 70 4.92 m/h 0 %
08:00:00 overcast clouds 30.270 30.270 30.270 69 5.02 m/h 0 %
11:00:00 broken clouds 34.400 34.400 34.400 53 6.1 m/h 0 %
14:00:00 few clouds 37.730 37.730 37.730 43 5.39 m/h 0 %
17:00:00 scattered clouds 36.410 36.410 36.410 46 7.39 m/h 0 %
20:00:00 scattered clouds 32.520 32.520 32.520 60 9.42 m/h 0 %
23:00:00 moderate rain 28.320 28.320 28.320 77 8.99 m/h 348 %
28-Jul-2021 (Wed)
02:00:00 moderate rain 27.670 27.670 27.670 78 8.36 m/h 328 %
05:00:00 light rain 26.970 26.970 26.970 82 4.82 m/h 278 %
08:00:00 light rain 26.890 26.890 26.890 82 3.96 m/h 135 %
11:00:00 light rain 26.390 26.390 26.390 84 5.27 m/h 193 %
14:00:00 light rain 26.910 26.910 26.910 82 4.74 m/h 226 %
17:00:00 light rain 27.460 27.460 27.460 78 6.12 m/h 83 %
20:00:00 light rain 26.080 26.080 26.080 82 2.72 m/h 163 %
23:00:00 light rain 26.220 26.220 26.220 82 0.62 m/h 210 %
29-Jul-2021 (Thu)
02:00:00 moderate rain 24.780 24.780 24.780 90 1.18 m/h 424 %
05:00:00 moderate rain 24.540 24.540 24.540 92 1.57 m/h 700 %
08:00:00 moderate rain 25.930 25.930 25.930 84 2.16 m/h 337 %
11:00:00 overcast clouds 29.300 29.300 29.300 67 1.93 m/h 0 %
14:00:00 light rain 31.870 31.870 31.870 58 2.04 m/h 84 %

Famous Cities (60)